createdAt,value
2023-03-06T00:02:34.000Z,26.6
2023-03-06T00:07:35.000Z,28.62
2023-03-06T00:12:35.000Z,27.44
2023-03-06T00:17:34.000Z,27.81
2023-03-06T00:22:35.000Z,28.2
2023-03-06T00:27:34.000Z,28.25
2023-03-06T00:32:35.000Z,28
2023-03-06T00:37:34.000Z,26.8
2023-03-06T00:42:35.000Z,27.68
2023-03-06T00:47:34.000Z,27.68
2023-03-06T00:52:35.000Z,26.48
2023-03-06T00:57:34.000Z,28.51
2023-03-06T01:02:35.000Z,26.19
2023-03-06T01:07:35.000Z,26.81
2023-03-06T01:12:34.000Z,27.55
2023-03-06T01:17:35.000Z,28.24
2023-03-06T01:22:35.000Z,28.69
2023-03-06T01:27:35.000Z,27.77
2023-03-06T01:32:34.000Z,27.13
2023-03-06T01:37:35.000Z,26.55
2023-03-06T01:42:34.000Z,26.55
2023-03-06T01:52:34.000Z,26.32
2023-03-06T01:57:35.000Z,24.45
2023-03-06T02:07:34.000Z,22.72
2023-03-06T02:12:34.000Z,24.06
2023-03-06T02:17:35.000Z,22.5
2023-03-06T02:22:34.000Z,22.5
2023-03-06T02:27:34.000Z,24.17
2023-03-06T02:37:35.000Z,21.63
2023-03-06T02:42:35.000Z,21.76
2023-03-06T02:47:34.000Z,20.56
2023-03-06T02:52:35.000Z,20.84
2023-03-06T02:57:34.000Z,20.84
2023-03-06T03:02:35.000Z,21.35
2023-03-06T03:07:35.000Z,21.34
2023-03-06T03:12:34.000Z,21.08
2023-03-06T03:17:35.000Z,20.37
2023-03-06T03:22:34.000Z,20.42
2023-03-06T03:27:35.000Z,22.46
2023-03-06T03:32:35.000Z,21.38
2023-03-06T03:37:35.000Z,22.67
2023-03-06T03:42:34.000Z,22
2023-03-06T03:47:35.000Z,23.01
2023-03-06T03:52:35.000Z,22.85
2023-03-06T03:57:35.000Z,22.02
2023-03-06T04:02:34.000Z,21.78
2023-03-06T04:07:35.000Z,22.76
2023-03-06T04:12:35.000Z,22.76
2023-03-06T04:17:35.000Z,21.37
2023-03-06T04:22:35.000Z,21.33
2023-03-06T04:27:34.000Z,22.05
2023-03-06T04:32:35.000Z,21.51
2023-03-06T04:37:35.000Z,22.34
2023-03-06T04:42:35.000Z,22.75
2023-03-06T04:47:35.000Z,22.19
2023-03-06T04:52:35.000Z,22.79
2023-03-06T04:57:35.000Z,22.14
2023-03-06T05:02:34.000Z,22.27
2023-03-06T05:07:35.000Z,22.06
2023-03-06T05:12:34.000Z,23.62
2023-03-06T05:17:35.000Z,22.61
2023-03-06T05:22:35.000Z,22.6
2023-03-06T05:27:34.000Z,22.6
2023-03-06T05:32:35.000Z,21.13
2023-03-06T05:37:35.000Z,22.34
2023-03-06T05:47:35.000Z,23.97
2023-03-06T05:52:34.000Z,23.97
2023-03-06T05:57:34.000Z,23.95
2023-03-06T06:02:35.000Z,25.13
2023-03-06T06:07:34.000Z,26.18
2023-03-06T06:12:35.000Z,25.72
2023-03-06T06:17:34.000Z,25.37
2023-03-06T06:22:34.000Z,26.14
2023-03-06T06:27:35.000Z,25.96
2023-03-06T06:32:35.000Z,25.3
2023-03-06T06:37:35.000Z,22.15
2023-03-06T06:42:44.000Z,19.72
2023-03-06T06:47:36.000Z,19.72
2023-03-06T06:52:34.000Z,19.43
2023-03-06T06:57:35.000Z,19.57
2023-03-06T07:02:34.000Z,19.49
2023-03-06T07:07:36.000Z,19.91
2023-03-06T07:12:34.000Z,19.96
2023-03-06T07:17:35.000Z,18.68
2023-03-06T07:22:34.000Z,16.1
2023-03-06T07:27:34.000Z,16.53
2023-03-06T07:32:35.000Z,15.92
2023-03-06T07:37:34.000Z,15.92
2023-03-06T07:42:35.000Z,16.89
2023-03-06T07:47:35.000Z,14.89
2023-03-06T07:52:35.000Z,14.99
2023-03-06T07:57:34.000Z,15.58
2023-03-06T08:02:35.000Z,15.99
2023-03-06T08:07:34.000Z,13.17
2023-03-06T08:12:35.000Z,13.15
2023-03-06T08:17:35.000Z,15.6
2023-03-06T08:22:34.000Z,16.82
2023-03-06T08:27:35.000Z,16.82
2023-03-06T08:32:35.000Z,22.07
2023-03-06T08:37:35.000Z,26.66
2023-03-06T08:42:34.000Z,26.82
2023-03-06T08:47:35.000Z,26.82
2023-03-06T08:52:34.000Z,31.72
2023-03-06T08:57:35.000Z,31.77
2023-03-06T09:02:35.000Z,29.87
2023-03-06T09:07:35.000Z,20.45
2023-03-06T09:12:35.000Z,18.23
2023-03-06T09:17:35.000Z,15.46
2023-03-06T09:22:35.000Z,17
2023-03-06T09:27:34.000Z,26.31
2023-03-06T09:32:35.000Z,15.14
2023-03-06T09:37:34.000Z,11.66
2023-03-06T09:42:35.000Z,11.66
2023-03-06T09:47:35.000Z,12.6
2023-03-06T09:52:35.000Z,13.99
2023-03-06T09:57:35.000Z,17.34
2023-03-06T10:02:35.000Z,16.98
2023-03-06T10:12:35.000Z,9.72
2023-03-06T10:17:35.000Z,5.78
2023-03-06T10:22:35.000Z,5.35
2023-03-06T10:27:34.000Z,5.36
2023-03-06T10:32:35.000Z,5.52
2023-03-06T10:37:35.000Z,7.32
2023-03-06T10:42:37.000Z,7.22
2023-03-06T10:47:34.000Z,6.05
2023-03-06T10:52:35.000Z,11.2
2023-03-06T10:57:34.000Z,8.16
2023-03-06T11:02:35.000Z,8.16
2023-03-06T11:07:36.000Z,7.08
2023-03-06T11:12:34.000Z,6.45
2023-03-06T11:27:35.000Z,6.04
2023-03-06T11:32:34.000Z,5.05
2023-03-06T11:37:35.000Z,5.55
2023-03-06T11:42:35.000Z,5.59
2023-03-06T11:47:35.000Z,6.53
2023-03-06T11:52:35.000Z,6.38
2023-03-06T11:57:34.000Z,6.33
2023-03-06T12:02:35.000Z,6.46
2023-03-06T12:07:35.000Z,4.41
2023-03-06T12:12:35.000Z,4.13
2023-03-06T12:17:35.000Z,3.5
2023-03-06T12:22:35.000Z,3.5
2023-03-06T12:27:35.000Z,2.52
2023-03-06T12:32:34.000Z,2.65
2023-03-06T12:37:35.000Z,2.28
2023-03-06T12:42:35.000Z,3.53
2023-03-06T12:47:35.000Z,2.12
2023-03-06T12:52:40.000Z,2.17
2023-03-06T12:57:35.000Z,2.17
2023-03-06T13:02:35.000Z,3.77
2023-03-06T13:07:35.000Z,5.23
2023-03-06T13:12:34.000Z,5.62
2023-03-06T13:17:35.000Z,6.06
2023-03-06T13:22:35.000Z,8.7
2023-03-06T13:27:35.000Z,6.03
2023-03-06T13:32:34.000Z,6.03
2023-03-06T13:37:35.000Z,5.37
2023-03-06T13:42:35.000Z,5.82
2023-03-06T13:47:35.000Z,8.75
2023-03-06T13:52:34.000Z,6.53
2023-03-06T13:57:35.000Z,4.95
2023-03-06T14:02:34.000Z,4.75
2023-03-06T14:07:35.000Z,5.09
2023-03-06T14:12:35.000Z,5.98
2023-03-06T14:17:35.000Z,7.05
2023-03-06T14:22:34.000Z,8.58
2023-03-06T14:32:34.000Z,8.36
2023-03-06T14:37:34.000Z,5.8
2023-03-06T14:42:35.000Z,4.87
2023-03-06T14:47:34.000Z,4.33
2023-03-06T14:52:35.000Z,4.8
2023-03-06T15:02:35.000Z,6.56
2023-03-06T15:07:34.000Z,7.92
2023-03-06T15:12:35.000Z,8.52
2023-03-06T15:17:35.000Z,8.87
2023-03-06T15:22:34.000Z,7.64
2023-03-06T15:27:35.000Z,7.45
2023-03-06T15:32:34.000Z,7.65
2023-03-06T15:37:35.000Z,7.88
2023-03-06T15:42:34.000Z,9.57
2023-03-06T15:47:35.000Z,12.18
2023-03-06T15:52:34.000Z,13.52
2023-03-06T15:57:35.000Z,12.7
2023-03-06T16:02:34.000Z,11.36
2023-03-06T16:07:37.000Z,11.36
2023-03-06T16:12:35.000Z,10.58
2023-03-06T16:17:35.000Z,11.46
2023-03-06T16:22:34.000Z,9.94
2023-03-06T16:27:35.000Z,7.12
2023-03-06T16:42:35.000Z,9.57
2023-03-06T16:47:35.000Z,6.99
2023-03-06T16:52:35.000Z,6.97
2023-03-06T16:57:34.000Z,8.44
2023-03-06T17:02:35.000Z,8.44
2023-03-06T17:07:34.000Z,7.2
2023-03-06T17:12:34.000Z,8.41
2023-03-06T17:22:34.000Z,8.12
2023-03-06T17:27:35.000Z,10.15
2023-03-06T17:32:34.000Z,11.71
2023-03-06T17:37:35.000Z,14.29
2023-03-06T17:42:35.000Z,17.01
2023-03-06T17:47:35.000Z,17.22
2023-03-06T17:52:35.000Z,16.61
2023-03-06T17:57:34.000Z,16.61
2023-03-06T18:02:35.000Z,15.61
2023-03-06T18:07:34.000Z,16.72
2023-03-06T18:17:35.000Z,22.04
2023-03-06T18:22:34.000Z,19.17
2023-03-06T18:27:35.000Z,15.88
2023-03-06T18:32:35.000Z,15.13
2023-03-06T18:37:34.000Z,15.59
2023-03-06T18:42:35.000Z,15.54
2023-03-06T18:47:35.000Z,16.64
2023-03-06T18:52:34.000Z,14.62
2023-03-06T18:57:35.000Z,15.15
2023-03-06T19:02:35.000Z,15.79
2023-03-06T19:07:35.000Z,15.79
2023-03-06T19:12:35.000Z,13.24
2023-03-06T19:17:35.000Z,13.06
2023-03-06T19:27:34.000Z,11.78
2023-03-06T19:32:35.000Z,12.19
2023-03-06T19:37:34.000Z,14.43
2023-03-06T19:42:35.000Z,14.52
2023-03-06T19:47:34.000Z,14.77
2023-03-06T19:52:35.000Z,15.13
2023-03-06T19:57:35.000Z,16.13
2023-03-06T20:02:35.000Z,14.71
2023-03-06T20:07:35.000Z,11.78
2023-03-06T20:12:35.000Z,14.67
2023-03-06T20:17:35.000Z,14.67
2023-03-06T20:22:35.000Z,14.89
2023-03-06T20:27:35.000Z,12.84
2023-03-06T20:32:35.000Z,13.05
2023-03-06T20:37:35.000Z,13.61
2023-03-06T20:42:35.000Z,13.34
2023-03-06T20:47:34.000Z,15.82
2023-03-06T20:52:35.000Z,15.31
2023-03-06T20:57:34.000Z,15.56
2023-03-06T21:02:35.000Z,15.02
2023-03-06T21:07:34.000Z,15.06
2023-03-06T21:12:35.000Z,13.4
2023-03-06T21:17:35.000Z,13.53
2023-03-06T21:22:35.000Z,13.17
2023-03-06T21:27:34.000Z,13.17
2023-03-06T21:32:35.000Z,14.28
2023-03-06T21:37:35.000Z,12.84
2023-03-06T21:42:34.000Z,12.74
2023-03-06T21:47:35.000Z,11.09
2023-03-06T21:52:36.000Z,12.26
2023-03-06T21:57:35.000Z,11.06
2023-03-06T22:02:35.000Z,11.23
2023-03-06T22:07:35.000Z,11.38
2023-03-06T22:12:35.000Z,11.38
2023-03-06T22:17:34.000Z,11.78
2023-03-06T22:22:35.000Z,11.48
2023-03-06T22:27:34.000Z,11.31
2023-03-06T22:32:35.000Z,11.75
2023-03-06T22:37:34.000Z,11.76
2023-03-06T22:42:35.000Z,11.85
2023-03-06T22:47:34.000Z,10.67
2023-03-06T22:52:35.000Z,10.66
2023-03-06T22:57:34.000Z,10.48
2023-03-06T23:02:35.000Z,11.15
2023-03-06T23:07:34.000Z,11.25
2023-03-06T23:12:34.000Z,10.71
2023-03-06T23:17:35.000Z,10.54
2023-03-06T23:22:35.000Z,10.7
2023-03-06T23:27:34.000Z,10.7
2023-03-06T23:32:34.000Z,11.08
2023-03-06T23:37:34.000Z,11.03
2023-03-06T23:42:35.000Z,11.27
2023-03-06T23:47:34.000Z,9.65
2023-03-06T23:52:35.000Z,9.65
2023-03-06T23:57:34.000Z,10.02
